Bomar Field

About
Name: Bomar Field
Identifier:  SYI/KSYI
Serves:  Shelbyville, Tennessee
Owner:  City of Shelbyville
Public/Private:  Public
Local Time:  22. Sep 15:55 CDT
Description: Shelbyville Municipal Airport, is a city-owned public-use airport located four miles north of the central business district of Shelbyville, a city in Bedford County, Tennessee, United States.
Source: Wikipedia
Location
Shelbyville
  United States

Runways
Identifier Length (m/ft) Surface
18/36 5,503/5,503 Asphalt
Statistics
Flights per Day:
0 flights
Flights delayed:
50% (0 flights per day delayed)
Delay Average: 12 minutes
Current Weather
 31 C (Humidity: 31%)
  8kt (14km/h / 9mph) from 180°
14 knots Gusts

  16km (10 mi.)
 
 METAR KSYI 222035Z AUTO 18008G14KT 10SM CLR 31/12 A3008 RMK A01

Current Delays

Departures
N/A
Arrivals
N/A

Destinations

Top Destinations
Airport Flights
per week
Seats
per week
  Sikeston (SIK) 0 - 0 0

Airlines & Planes

Top Airlines
Airline Flights
per Day
Seats
per Day
  Nolinor Aviation 0 -
Top Plane Types
Model Flights Seats

Scheduled Departures at Bomar Field

←All Airport Details

 Show Arrivals


Flights
No further flights found, please select another date